Time;durP1;ratioP1;P1;durP2;ratioP2;P2;SDS_P1;SDS_P2;PMS_P1;PMS_P2;Temp;Humidity;BMP_temperature;BMP_pressure;BME280_temperature;BME280_humidity;BME280_pressure;Samples;Min_cycle;Max_cycle;Signal;HPM_P1;HPM_P2
2022/07/01 00:00:36;;;;;;;11.78;5.72;;;;;;;15.60;100.00;100836.15;1735162;81;21134;-44
2022/07/01 00:03:04;;;;;;;8.28;5.90;;;;;;;15.58;100.00;100834.52;1734675;82;20898;-43
2022/07/01 00:05:30;;;;;;;10.25;6.00;;;;;;;15.55;100.00;100838.06;1735230;82;20945;-43
2022/07/01 00:07:57;;;;;;;9.73;5.92;;;;;;;15.51;100.00;100834.69;1734685;82;20937;-44
2022/07/01 00:10:24;;;;;;;7.22;6.10;;;;;;;15.48;100.00;100833.96;1721503;82;20984;-43
2022/07/01 00:12:51;;;;;;;11.40;6.22;;;;;;;15.50;100.00;100833.45;1730281;82;21966;-43
2022/07/01 00:15:18;;;;;;;9.35;6.10;;;;;;;15.48;100.00;100835.27;1716411;82;20941;-43
2022/07/01 00:17:44;;;;;;;10.95;6.30;;;;;;;15.43;100.00;100822.36;1734919;82;20918;-43
2022/07/01 00:20:12;;;;;;;6.70;6.10;;;;;;;15.41;100.00;100829.39;1734850;82;21051;-43
2022/07/01 00:22:38;;;;;;;6.58;5.92;;;;;;;15.38;100.00;100824.28;1734818;82;20909;-44
2022/07/01 00:25:07;;;;;;;22.80;6.33;;;;;;;15.34;100.00;100831.34;1735178;82;21237;-43
2022/07/01 00:27:39;;;;;;;8.48;6.50;;;;;;;15.29;100.00;100826.73;1692801;83;20980;-43
2022/07/01 00:30:08;;;;;;;8.70;5.60;;;;;;;15.27;100.00;100817.23;1706870;82;21293;-43
2022/07/01 00:32:36;;;;;;;6.80;5.95;;;;;;;15.22;100.00;100815.64;1706095;82;21522;-44
2022/07/01 00:35:04;;;;;;;10.65;5.58;;;;;;;15.17;100.00;100811.02;1706069;82;21038;-43
2022/07/01 00:37:31;;;;;;;16.60;6.80;;;;;;;15.10;100.00;100816.05;1705973;82;21137;-44
2022/07/01 00:39:58;;;;;;;10.53;6.42;;;;;;;15.04;100.00;100816.24;1719412;82;20929;-43
2022/07/01 00:42:24;;;;;;;8.28;6.28;;;;;;;14.99;100.00;100818.12;1734745;82;20996;-44
2022/07/01 00:44:53;;;;;;;7.97;5.80;;;;;;;14.93;100.00;100810.89;1734855;82;20929;-43
2022/07/01 00:47:20;;;;;;;11.90;5.90;;;;;;;14.91;100.00;100810.09;1722784;82;21031;-44
2022/07/01 00:49:46;;;;;;;9.00;5.87;;;;;;;14.90;100.00;100817.52;1706091;82;22235;-43
2022/07/01 00:52:13;;;;;;;6.40;5.80;;;;;;;14.88;100.00;100820.61;1705964;82;20949;-44
2022/07/01 00:54:40;;;;;;;6.58;5.95;;;;;;;14.86;100.00;100817.20;1708039;82;20897;-43
2022/07/01 00:57:10;;;;;;;9.05;5.30;;;;;;;14.86;100.00;100817.20;1721742;82;20980;-43
2022/07/01 00:59:39;;;;;;;4.92;4.53;;;;;;;14.88;100.00;100821.05;1735267;82;21004;-43
2022/07/01 01:02:07;;;;;;;7.42;5.20;;;;;;;14.88;100.00;100818.45;1717491;82;22026;-43
2022/07/01 01:04:35;;;;;;;10.60;5.42;;;;;;;14.88;100.00;100819.75;1713841;82;20939;-43
2022/07/01 01:07:02;;;;;;;5.42;5.05;;;;;;;14.85;100.00;100814.20;1740830;82;20971;-43
2022/07/01 01:09:34;;;;;;;13.08;4.75;;;;;;;14.85;100.00;100812.89;1743435;81;21011;-44
2022/07/01 01:11:58;;;;;;;4.80;4.50;;;;;;;14.83;100.00;100815.13;1740133;82;21538;-43
2022/07/01 01:14:25;;;;;;;5.92;4.60;;;;;;;14.80;100.00;100807.81;1743314;82;21122;-44
2022/07/01 01:16:52;;;;;;;7.78;4.28;;;;;;;14.74;100.00;100811.05;1743108;82;20936;-43
2022/07/01 01:19:20;;;;;;;10.08;5.45;;;;;;;14.67;100.00;100807.77;1725497;82;21015;-44
2022/07/01 01:21:47;;;;;;;7.78;4.65;;;;;;;14.61;100.00;100804.89;1713767;82;21015;-44
2022/07/01 01:24:13;;;;;;;5.42;4.90;;;;;;;14.58;100.00;100808.89;1719846;82;20989;-43
2022/07/01 01:26:40;;;;;;;5.08;4.67;;;;;;;14.54;100.00;100815.53;1713939;82;21125;-44
2022/07/01 01:29:07;;;;;;;9.05;5.00;;;;;;;14.50;100.00;100810.84;1713913;82;20948;-43
2022/07/01 01:31:35;;;;;;;10.78;5.12;;;;;;;14.44;100.00;100814.94;1713877;82;20995;-43
2022/07/01 01:34:03;;;;;;;6.40;5.25;;;;;;;14.40;100.00;100809.41;1714016;82;21454;-43
2022/07/01 01:36:30;;;;;;;7.60;4.85;;;;;;;14.38;100.00;100809.45;1714300;82;21008;-43
2022/07/01 01:39:00;;;;;;;6.75;4.60;;;;;;;14.37;100.00;100814.25;1732429;82;21041;-43
2022/07/01 01:41:26;;;;;;;7.15;4.60;;;;;;;14.39;100.00;100818.12;1721101;82;20976;-44
2022/07/01 01:43:52;;;;;;;10.00;4.92;;;;;;;14.38;100.00;100815.95;1718478;82;20943;-43
2022/07/01 01:46:19;;;;;;;5.95;5.08;;;;;;;14.35;100.00;100819.52;1715683;82;20893;-44
2022/07/01 01:48:46;;;;;;;8.08;4.35;;;;;;;14.31;100.00;100820.52;1741375;82;20940;-44
2022/07/01 01:51:13;;;;;;;8.78;5.55;;;;;;;14.31;100.00;100827.45;1703575;82;21156;-43
2022/07/01 01:53:39;;;;;;;8.98;5.20;;;;;;;14.29;100.00;100836.63;1738888;82;20975;-44
2022/07/01 01:56:06;;;;;;;8.03;5.05;;;;;;;14.31;100.00;100833.53;1717170;82;20987;-44
2022/07/01 01:58:33;;;;;;;7.50;5.33;;;;;;;14.33;100.00;100832.16;1722486;81;20995;-43
2022/07/01 02:00:59;;;;;;;5.35;4.78;;;;;;;14.34;100.00;100839.95;1721820;82;21577;-44
2022/07/01 02:03:26;;;;;;;5.30;4.87;;;;;;;14.35;100.00;100837.75;1743247;81;21388;-43
2022/07/01 02:05:52;;;;;;;7.30;4.60;;;;;;;14.36;100.00;100835.55;1743067;81;20877;-44
2022/07/01 02:08:19;;;;;;;5.95;4.65;;;;;;;14.37;100.00;100846.37;1714027;82;20984;-43
2022/07/01 02:10:46;;;;;;;8.15;4.37;;;;;;;14.40;100.00;100845.88;1742313;81;20948;-44
2022/07/01 02:13:12;;;;;;;9.03;5.12;;;;;;;14.43;100.00;100852.30;1713807;82;20983;-43
2022/07/01 02:15:39;;;;;;;6.45;4.53;;;;;;;14.48;100.00;100853.02;1713910;82;21152;-44
2022/07/01 02:18:06;;;;;;;5.70;5.00;;;;;;;14.55;100.00;100853.27;1713811;83;21011;-44
2022/07/01 02:20:33;;;;;;;7.65;5.05;;;;;;;14.63;100.00;100863.44;1715514;82;21067;-44
2022/07/01 02:23:00;;;;;;;8.23;4.70;;;;;;;14.73;100.00;100859.72;1739577;82;20941;-43
2022/07/01 02:25:28;;;;;;;10.82;5.40;;;;;;;14.85;100.00;100861.11;1690395;83;20988;-43
2022/07/01 02:27:54;;;;;;;5.20;4.78;;;;;;;14.94;100.00;100859.52;1714141;82;21968;-43
2022/07/01 02:30:21;;;;;;;9.05;4.90;;;;;;;15.01;100.00;100859.32;1715776;82;20976;-43
2022/07/01 02:32:48;;;;;;;9.05;4.97;;;;;;;15.06;100.00;100866.58;1727080;82;21503;-44
2022/07/01 02:35:14;;;;;;;7.28;4.62;;;;;;;15.13;100.00;100867.22;1743524;82;20979;-43
2022/07/01 02:37:41;;;;;;;6.90;4.22;;;;;;;15.19;100.00;100870.96;1722505;82;21059;-44
2022/07/01 02:40:10;;;;;;;17.32;4.70;;;;;;;15.23;100.00;100869.49;1743417;82;21119;-43
2022/07/01 02:42:37;;;;;;;14.20;3.70;;;;;;;15.26;100.00;100869.86;1736663;81;21490;-42
2022/07/01 02:45:04;;;;;;;9.60;4.22;;;;;;;15.27;100.00;100865.48;1684288;83;21039;-42
2022/07/01 02:47:36;;;;;;;7.12;3.72;;;;;;;15.27;100.00;100868.95;1719819;82;20983;-42
2022/07/01 02:50:05;;;;;;;6.35;3.05;;;;;;;15.29;100.00;100869.76;1713825;83;21018;-42
2022/07/01 02:52:34;;;;;;;3.90;3.58;;;;;;;15.29;100.00;100869.76;1713939;82;21895;-42
2022/07/01 02:55:01;;;;;;;7.12;3.67;;;;;;;15.32;100.00;100875.34;1741798;82;20945;-42
2022/07/01 02:57:29;;;;;;;5.67;3.40;;;;;;;15.35;100.00;100872.16;1723712;82;21043;-42
2022/07/01 02:59:56;;;;;;;6.05;3.05;;;;;;;15.41;100.00;100878.08;1713752;82;20991;-42
2022/07/01 03:02:23;;;;;;;6.12;3.50;;;;;;;15.48;100.00;100873.93;1710423;82;21033;-42
2022/07/01 03:04:51;;;;;;;6.55;3.80;;;;;;;15.54;100.00;100875.49;1707823;82;21209;-42
2022/07/01 03:07:20;;;;;;;4.03;2.65;;;;;;;15.58;100.00;100877.09;1706022;82;21003;-42
2022/07/01 03:09:47;;;;;;;10.40;3.17;;;;;;;15.62;100.00;100876.09;1705726;83;20980;-43
2022/07/01 03:12:29;;;;;;;9.63;2.98;;;;;;;15.66;100.00;100885.98;1706123;82;20999;-43
2022/07/01 03:14:59;;;;;;;5.05;2.92;;;;;;;15.70;100.00;100891.49;1706896;82;21051;-43
2022/07/01 03:17:28;;;;;;;3.25;2.92;;;;;;;15.76;100.00;100892.59;1732423;82;21165;-43
2022/07/01 03:19:56;;;;;;;6.70;3.25;;;;;;;15.84;100.00;100890.20;1735199;82;20893;-43
2022/07/01 03:22:26;;;;;;;6.35;2.60;;;;;;;15.91;100.00;100887.80;1707693;82;20949;-43
2022/07/01 03:24:53;;;;;;;2.98;2.75;;;;;;;16.01;100.00;100890.48;1708071;82;21670;-43
2022/07/01 03:27:20;;;;;;;5.50;2.95;;;;;;;16.11;100.00;100888.89;1731933;82;20992;-43
2022/07/01 03:29:47;;;;;;;5.28;2.85;;;;;;;16.20;100.00;100889.86;1734977;82;22092;-42
2022/07/01 03:32:13;;;;;;;4.42;2.83;;;;;;;16.28;100.00;100899.57;1734489;81;20941;-42
2022/07/01 03:34:42;;;;;;;2.87;2.60;;;;;;;16.37;100.00;100900.56;1714505;82;21023;-43
2022/07/01 03:37:10;;;;;;;4.30;2.33;;;;;;;16.44;100.00;100897.73;1705872;82;20976;-43
2022/07/01 03:39:37;;;;;;;4.20;2.30;;;;;;;16.58;100.00;100895.92;1685699;84;20960;-43
2022/07/01 03:42:05;;;;;;;9.98;2.37;;;;;;;16.69;100.00;100895.53;1722441;82;21965;-43
2022/07/01 03:44:33;;;;;;;4.05;2.50;;;;;;;16.91;100.00;100895.13;1734971;82;20925;-43
2022/07/01 03:47:01;;;;;;;5.60;2.30;;;;;;;17.18;100.00;100895.00;1724779;81;20984;-45
2022/07/01 03:49:28;;;;;;;2.60;2.40;;;;;;;17.50;100.00;100892.02;1705929;84;20944;-42
2022/07/01 03:51:55;;;;;;;9.20;2.33;;;;;;;17.85;100.00;100892.78;1714959;82;20976;-42
2022/07/01 03:54:31;;;;;;;2.55;1.90;;;;;;;18.14;100.00;100896.79;1705847;84;21989;-43
2022/07/01 03:57:02;;;;;;;6.45;2.08;;;;;;;18.45;98.81;100898.09;1727651;82;21503;-43
2022/07/01 03:59:31;;;;;;;3.25;2.00;;;;;;;18.78;97.60;100896.61;1706948;82;20909;-43
2022/07/01 04:01:58;;;;;;;2.33;1.90;;;;;;;19.01;93.84;100899.52;1706905;82;20989;-42
2022/07/01 04:04:26;;;;;;;10.43;2.15;;;;;;;19.19;92.41;100901.73;1714013;82;20956;-43
2022/07/01 04:06:53;;;;;;;5.62;1.92;;;;;;;19.33;89.71;100898.92;1713689;82;21273;-43
2022/07/01 04:09:20;;;;;;;5.53;1.95;;;;;;;19.52;87.42;100903.64;1685351;83;21119;-43
2022/07/01 04:11:48;;;;;;;4.90;1.80;;;;;;;19.77;87.14;100908.16;1735964;82;20937;-43
2022/07/01 04:14:15;;;;;;;7.12;2.27;;;;;;;19.96;84.24;100909.41;1743238;82;20933;-43
2022/07/01 04:16:44;;;;;;;5.53;1.62;;;;;;;20.08;84.08;100915.37;1741227;82;20968;-43
2022/07/01 04:19:10;;;;;;;6.47;2.25;;;;;;;20.21;83.25;100909.47;1741252;82;22062;-43
2022/07/01 04:24:22;;;;;;;13.73;2.23;;;;;;;20.41;80.97;100911.52;1743610;82;20996;-43
2022/07/01 04:26:49;;;;;;;7.22;2.02;;;;;;;20.67;80.75;100904.86;1743389;81;21497;-43
2022/07/01 04:29:16;;;;;;;5.80;1.82;;;;;;;20.95;79.73;100901.61;1733566;82;20912;-43
2022/07/01 04:31:43;;;;;;;10.93;2.20;;;;;;;21.25;78.27;100897.36;1714060;82;21478;-43
2022/07/01 04:34:11;;;;;;;6.40;2.10;;;;;;;21.36;76.74;100898.07;1713801;83;21032;-43
2022/07/01 04:36:38;;;;;;;3.80;2.12;;;;;;;21.43;75.86;100895.45;1725567;82;21040;-43
2022/07/01 04:39:05;;;;;;;5.03;2.00;;;;;;;21.57;76.70;100893.34;1726056;82;20973;-43
2022/07/01 04:44:18;;;;;;;2.85;2.12;;;;;;;22.15;74.89;100890.02;1713898;83;21303;-43
2022/07/01 04:46:45;;;;;;;4.30;2.33;;;;;;;22.44;72.62;100896.61;1719117;82;21430;-44
2022/07/01 04:49:12;;;;;;;2.17;1.87;;;;;;;22.68;71.42;100899.53;1716367;82;21019;-43
2022/07/01 04:51:39;;;;;;;2.12;1.77;;;;;;;22.92;70.50;100898.47;1714015;82;20991;-43
2022/07/01 04:54:06;;;;;;;3.60;2.00;;;;;;;23.20;68.56;100894.05;1713820;83;21553;-43
2022/07/01 04:56:35;;;;;;;3.62;1.90;;;;;;;23.46;65.80;100891.98;1714014;82;21042;-43
2022/07/01 04:59:02;;;;;;;4.62;2.10;;;;;;;23.62;65.67;100889.16;1713689;82;20933;-43
2022/07/01 05:01:29;;;;;;;5.78;1.82;;;;;;;23.80;66.24;100898.99;1732938;82;20980;-43
2022/07/01 05:03:56;;;;;;;4.35;2.00;;;;;;;24.00;66.35;100894.13;1736663;81;21471;-43
2022/07/01 05:06:23;;;;;;;6.83;1.95;;;;;;;24.19;67.53;100897.23;1724579;82;20952;-43
2022/07/01 05:08:50;;;;;;;8.93;2.20;;;;;;;24.42;66.49;100895.27;1705937;82;21132;-44
2022/07/01 05:11:17;;;;;;;7.40;1.80;;;;;;;24.66;66.03;100899.29;1710917;82;20979;-43
2022/07/01 05:13:44;;;;;;;18.37;5.20;;;;;;;24.90;68.55;100890.11;1735378;82;20920;-43
2022/07/01 05:16:11;;;;;;;18.35;3.17;;;;;;;25.21;64.38;100897.59;1734931;82;21036;-43
2022/07/01 05:24:08;;;;;;;6.22;1.50;;;;;;;26.18;63.14;100901.92;1733089;82;21511;-44
2022/07/01 05:26:35;;;;;;;8.40;2.17;;;;;;;26.42;60.91;100899.64;1705909;82;20937;-44
2022/07/01 05:29:02;;;;;;;1.98;1.35;;;;;;;26.52;57.19;100896.60;1706022;82;20953;-44
2022/07/01 05:31:29;;;;;;;17.40;3.72;;;;;;;26.56;55.63;100898.04;1715881;82;20941;-44
2022/07/01 05:33:55;;;;;;;5.22;2.27;;;;;;;26.56;56.15;100895.89;1734936;82;21149;-44
2022/07/01 05:36:22;;;;;;;5.47;1.70;;;;;;;26.61;56.80;100893.70;1734802;82;20968;-44
2022/07/01 05:38:49;;;;;;;7.37;1.60;;;;;;;26.68;54.56;100894.89;1734769;81;20925;-43
2022/07/01 05:41:16;;;;;;;4.72;1.50;;;;;;;26.67;56.07;100891.88;1706627;82;21005;-43
2022/07/01 05:43:43;;;;;;;5.47;1.57;;;;;;;26.67;55.40;100896.72;1721005;82;20945;-44
2022/07/01 05:46:10;;;;;;;3.05;1.40;;;;;;;26.62;52.59;100898.88;1733214;82;21964;-44
2022/07/01 05:48:37;;;;;;;2.37;1.00;;;;;;;26.49;51.32;100896.84;1729831;82;20968;-44
2022/07/01 05:51:04;;;;;;;6.08;1.30;;;;;;;26.46;51.13;100893.11;1734632;82;20937;-44
2022/07/01 05:53:31;;;;;;;6.90;1.30;;;;;;;26.48;51.45;100896.48;1735024;82;21039;-44
2022/07/01 05:55:57;;;;;;;3.80;1.40;;;;;;;26.67;52.88;100896.72;1735498;81;20956;-44
2022/07/01 05:58:24;;;;;;;4.92;1.30;;;;;;;26.70;50.61;100894.78;1732910;82;21468;-43
2022/07/01 06:00:50;;;;;;;6.22;1.20;;;;;;;26.78;50.38;100898.52;1734890;81;21486;-44
2022/07/01 06:03:17;;;;;;;3.50;1.37;;;;;;;26.99;49.78;100898.25;1718758;81;20968;-43
2022/07/01 06:05:44;;;;;;;1.92;1.45;;;;;;;27.05;49.22;100888.44;1713745;82;21530;-44
2022/07/01 06:08:11;;;;;;;5.17;1.15;;;;;;;27.07;48.35;100889.16;1724094;82;20963;-43
2022/07/01 06:10:39;;;;;;;3.25;1.15;;;;;;;27.30;47.47;100895.72;1722517;82;21512;-43
2022/07/01 06:13:06;;;;;;;1.55;1.10;;;;;;;27.26;47.57;100891.13;1731248;82;20960;-43
2022/07/01 06:15:33;;;;;;;5.65;1.12;;;;;;;27.25;46.50;100888.98;1733681;82;20971;-44
2022/07/01 06:18:00;;;;;;;2.42;1.20;;;;;;;27.34;46.43;100891.36;1715724;82;21026;-44
2022/07/01 06:20:27;;;;;;;9.38;1.25;;;;;;;27.52;45.35;100885.02;1713815;82;20969;-43
2022/07/01 06:22:53;;;;;;;1.20;1.10;;;;;;;27.66;44.73;100888.31;1706168;82;21070;-43
2022/07/01 06:25:20;;;;;;;4.45;1.20;;;;;;;27.58;43.70;100884.14;1739250;82;21556;-43
2022/07/01 06:27:47;;;;;;;2.87;1.35;;;;;;;27.27;43.51;100884.02;1713850;82;21027;-43
2022/07/01 06:30:13;;;;;;;6.50;1.40;;;;;;;27.18;43.17;100883.82;1715550;82;22132;-43
2022/07/01 06:32:41;;;;;;;2.75;1.90;;;;;;;27.10;43.38;100878.28;1721094;82;21482;-43
2022/07/01 06:35:08;;;;;;;2.80;1.12;;;;;;;27.19;43.60;100878.87;1743025;81;21044;-43
2022/07/01 06:37:36;;;;;;;9.50;1.55;;;;;;;27.32;44.60;100881.35;1743099;82;21000;-44
2022/07/01 06:40:04;;;;;;;5.92;1.15;;;;;;;27.45;42.75;100881.64;1718733;81;20992;-44
2022/07/01 06:42:32;;;;;;;3.30;1.50;;;;;;;27.50;41.54;100885.60;1731415;82;21064;-44
2022/07/01 06:44:59;;;;;;;4.00;1.20;;;;;;;27.43;39.94;100887.57;1743272;82;21466;-44
2022/07/01 06:47:26;;;;;;;8.10;1.27;;;;;;;27.31;38.36;100879.66;1737290;82;21186;-44
2022/07/01 06:49:54;;;;;;;5.25;1.30;;;;;;;27.18;38.50;100885.63;1741094;82;21537;-44
2022/07/01 06:52:20;;;;;;;3.08;1.10;;;;;;;27.06;39.61;100879.03;1742983;81;20932;-44
2022/07/01 06:54:47;;;;;;;4.40;1.35;;;;;;;27.08;38.92;100883.73;1742871;82;21526;-45
2022/07/01 06:57:14;;;;;;;2.12;1.35;;;;;;;27.03;37.33;100879.76;1743238;82;20976;-45
2022/07/01 06:59:40;;;;;;;4.45;1.35;;;;;;;26.97;38.02;100878.44;1716609;82;22132;-44
2022/07/01 07:02:08;;;;;;;5.80;1.52;;;;;;;27.01;38.79;100875.89;1713819;82;20968;-44
2022/07/01 07:04:35;;;;;;;7.72;1.30;;;;;;;27.10;38.44;100882.27;1711405;82;21590;-44
2022/07/01 07:07:03;;;;;;;2.95;1.27;;;;;;;27.23;38.77;100882.95;1732941;82;20992;-44
2022/07/01 07:09:30;;;;;;;1.80;1.30;;;;;;;27.47;38.92;100882.35;1691242;82;20979;-45
2022/07/01 07:11:56;;;;;;;6.80;1.50;;;;;;;27.59;35.67;100879.17;1714977;81;21031;-44
2022/07/01 07:14:24;;;;;;;2.00;1.27;;;;;;;27.53;37.25;100882.72;1705698;83;21016;-45
2022/07/01 07:16:53;;;;;;;8.63;1.77;;;;;;;27.51;35.67;100885.99;1692728;82;21039;-44
2022/07/01 07:19:19;;;;;;;5.15;1.15;;;;;;;27.45;36.49;100886.48;1716040;82;20964;-44
2022/07/01 07:21:46;;;;;;;1.77;1.20;;;;;;;27.56;36.41;100886.09;1735028;81;21091;-43
2022/07/01 07:24:13;;;;;;;2.60;1.17;;;;;;;27.55;36.81;100881.27;1724566;81;21072;-45
2022/07/01 07:26:39;;;;;;;6.70;1.35;;;;;;;27.65;35.96;100879.98;1733807;82;20984;-44
2022/07/01 07:29:07;;;;;;;6.53;1.45;;;;;;;27.75;36.06;100882.23;1724756;82;21024;-44
2022/07/01 07:31:34;;;;;;;1.45;1.10;;;;;;;27.87;36.53;100883.00;1716673;82;20972;-43
2022/07/01 07:34:03;;;;;;;2.62;1.32;;;;;;;27.85;36.72;100889.42;1707587;82;21003;-44
2022/07/01 07:36:29;;;;;;;3.70;1.40;;;;;;;27.77;36.91;100889.59;1710261;82;21145;-43
2022/07/01 07:38:56;;;;;;;3.15;1.27;;;;;;;27.74;36.44;100889.00;1727359;82;20976;-43
2022/07/01 07:41:23;;;;;;;8.25;1.47;;;;;;;27.81;36.75;100891.52;1714343;81;20968;-43
2022/07/01 07:43:50;;;;;;;1.92;1.50;;;;;;;27.90;36.73;100895.18;1729319;82;20991;-43
2022/07/01 07:46:17;;;;;;;4.70;1.47;;;;;;;27.87;35.88;100885.66;1712640;82;21016;-42
2022/07/01 07:48:43;;;;;;;1.90;1.27;;;;;;;27.77;37.24;100888.27;1721853;82;21244;-42
2022/07/01 07:51:15;;;;;;;3.40;1.57;;;;;;;27.85;35.38;100885.42;1726268;82;20964;-43
2022/07/01 07:53:40;;;;;;;4.85;1.65;;;;;;;27.88;37.34;100887.82;1706684;82;21695;-43
2022/07/01 07:56:07;;;;;;;2.95;1.35;;;;;;;28.10;36.73;100886.33;1708337;82;20944;-43
2022/07/01 07:58:34;;;;;;;4.22;1.40;;;;;;;28.23;35.87;100896.78;1712610;82;20980;-43
2022/07/01 08:01:00;;;;;;;4.47;1.70;;;;;;;28.20;36.73;100884.25;1712253;82;21117;-44
2022/07/01 08:03:27;;;;;;;6.25;1.57;;;;;;;28.23;37.38;100883.48;1709388;81;21034;-44
2022/07/01 08:05:54;;;;;;;6.67;1.52;;;;;;;28.28;35.20;100881.76;1719869;82;20984;-44
2022/07/01 08:08:20;;;;;;;5.78;1.20;;;;;;;28.18;35.92;100885.70;1719322;82;20964;-44
2022/07/01 08:10:47;;;;;;;2.80;1.22;;;;;;;28.32;35.70;100885.83;1733188;82;20980;-44
2022/07/01 08:13:13;;;;;;;6.08;1.10;;;;;;;28.32;34.93;100883.67;1738700;82;21097;-43
2022/07/01 08:15:41;;;;;;;9.18;1.50;;;;;;;28.41;37.24;100881.52;1728274;81;21261;-44
2022/07/01 08:19:42;;;;;;;4.45;1.20;;;;;;;28.73;34.53;100874.33;1796852;79;22547;-45
2022/07/01 08:22:10;;;;;;;5.83;1.30;;;;;;;28.79;34.55;100884.45;1760802;80;20929;-44
2022/07/01 08:24:37;;;;;;;4.55;1.52;;;;;;;28.87;33.91;100880.60;1744713;80;21095;-45
2022/07/01 08:27:04;;;;;;;9.40;1.35;;;;;;;28.85;35.20;100879.90;1757213;80;20937;-43
2022/07/01 08:29:32;;;;;;;3.25;1.40;;;;;;;29.02;35.25;100868.22;1759385;79;21089;-44
2022/07/01 08:31:58;;;;;;;5.17;1.30;;;;;;;29.11;34.75;100868.70;1742633;80;20991;-45
2022/07/01 08:34:26;;;;;;;2.20;1.20;;;;;;;29.17;34.80;100869.47;1758187;80;20987;-44
2022/07/01 08:36:53;;;;;;;5.20;1.47;;;;;;;29.19;34.37;100859.54;1749676;80;21202;-44
2022/07/01 08:39:21;;;;;;;3.75;1.27;;;;;;;29.29;36.02;100867.50;1749936;80;20971;-44
2022/07/01 08:41:48;;;;;;;1.32;1.22;;;;;;;29.52;34.59;100862.76;1750198;80;20984;-43
2022/07/01 08:44:15;;;;;;;2.40;1.12;;;;;;;29.61;33.70;100861.53;1718948;81;20923;-44
2022/07/01 08:46:44;;;;;;;2.17;1.20;;;;;;;29.55;33.68;100856.28;1722618;81;22347;-43
2022/07/01 08:49:12;;;;;;;1.22;1.05;;;;;;;29.52;33.20;100856.09;1732404;81;21081;-44
2022/07/01 08:51:38;;;;;;;4.90;1.10;;;;;;;29.44;34.43;100854.64;1703127;82;20948;-44
2022/07/01 08:54:05;;;;;;;7.58;1.42;;;;;;;29.49;35.05;100852.38;1719423;83;21580;-44
2022/07/01 08:56:41;;;;;;;3.52;1.40;;;;;;;29.63;36.12;100862.23;1719198;83;20975;-44
2022/07/01 08:59:11;;;;;;;1.85;1.25;;;;;;;29.75;34.27;100857.57;1719284;83;20996;-44
2022/07/01 09:01:38;;;;;;;3.72;1.20;;;;;;;29.80;35.82;100856.64;1732941;81;21106;-45
2022/07/01 09:04:17;;;;;;;1.92;1.30;;;;;;;29.86;35.15;100857.89;1721867;81;20975;-44
2022/07/01 09:06:45;;;;;;;7.97;1.20;;;;;;;29.74;33.63;100855.41;1719323;81;21058;-45
2022/07/01 09:09:21;;;;;;;10.55;1.65;;;;;;;29.56;34.09;100847.80;1727295;81;20928;-45
2022/07/01 09:11:54;;;;;;;6.53;1.57;;;;;;;29.48;34.63;100853.84;1719038;81;21133;-43
2022/07/01 09:14:29;;;;;;;7.03;1.62;;;;;;;29.56;36.03;100845.14;1727126;81;21151;-45
2022/07/01 09:16:58;;;;;;;2.27;1.70;;;;;;;29.55;34.90;100850.95;1701447;83;20948;-44
2022/07/01 09:19:26;;;;;;;6.20;1.40;;;;;;;29.48;35.26;100849.84;1717194;82;20988;-44
2022/07/01 09:22:01;;;;;;;3.30;1.15;;;;;;;29.51;34.87;100843.75;1720175;82;21039;-43
2022/07/01 09:24:32;;;;;;;3.65;1.25;;;;;;;29.51;34.38;100839.75;1708917;82;21030;-45
2022/07/01 09:27:11;;;;;;;4.45;1.20;;;;;;;29.36;35.67;100841.13;1707426;82;21200;-44
2022/07/01 09:29:40;;;;;;;4.92;1.35;;;;;;;29.43;35.57;100843.63;1730756;82;20972;-45
2022/07/01 09:32:09;;;;;;;10.93;1.15;;;;;;;29.52;34.44;100834.77;1707156;82;20974;-44
2022/07/01 09:34:48;;;;;;;4.37;1.17;;;;;;;29.61;35.14;100834.39;1733706;82;21040;-45
2022/07/01 09:37:18;;;;;;;3.17;1.17;;;;;;;29.65;36.00;100827.78;1711139;82;20973;-42
2022/07/01 09:39:53;;;;;;;4.62;1.40;;;;;;;29.72;35.27;100832.05;1711854;82;21116;-44
2022/07/01 09:42:23;;;;;;;6.00;1.62;;;;;;;29.82;34.63;100824.84;1722436;82;20977;-44
2022/07/01 09:45:06;;;;;;;5.30;1.55;;;;;;;30.06;34.33;100826.19;1713246;82;20937;-44
2022/07/01 09:47:34;;;;;;;8.98;1.30;;;;;;;30.04;35.17;100820.64;1713525;82;21026;-44
2022/07/01 09:50:06;;;;;;;2.15;1.30;;;;;;;29.86;34.32;100820.07;1709636;82;20996;-44
2022/07/01 09:52:33;;;;;;;2.87;1.30;;;;;;;29.57;35.77;100814.82;1725513;83;21204;-44
2022/07/01 09:55:00;;;;;;;3.62;1.40;;;;;;;29.61;37.69;100820.20;1728864;82;20992;-43
2022/07/01 09:57:27;;;;;;;2.30;1.65;;;;;;;29.74;36.50;100810.08;1728942;82;20924;-45
2022/07/01 09:59:54;;;;;;;4.75;1.60;;;;;;;29.65;35.78;100806.93;1728805;81;20920;-44
2022/07/01 10:02:22;;;;;;;4.60;1.40;;;;;;;29.64;36.50;100803.92;1717521;83;21019;-45
2022/07/01 10:04:53;;;;;;;7.47;1.32;;;;;;;29.81;35.58;100803.67;1714129;83;21145;-44
2022/07/01 10:07:49;;;;;;;2.15;1.05;;;;;;;30.06;35.54;100799.98;1713435;82;20928;-44
2022/07/01 10:10:43;;;;;;;6.72;1.70;;;;;;;30.43;35.41;100802.23;1677455;85;20932;-43
2022/07/01 10:13:14;;;;;;;4.35;1.47;;;;;;;30.57;34.17;100819.57;1682307;84;21055;-43
2022/07/01 10:15:45;;;;;;;4.22;1.30;;;;;;;30.30;33.92;100807.46;1664568;85;20956;-44
2022/07/01 10:18:26;;;;;;;1.40;1.05;;;;;;;30.01;34.00;100792.89;1708014;82;21107;-44
2022/07/01 10:20:54;;;;;;;3.05;1.55;;;;;;;29.89;34.53;100791.77;1727765;81;20974;-43
2022/07/01 10:23:23;;;;;;;1.92;1.50;;;;;;;29.86;35.21;100800.55;1749282;81;20985;-43
2022/07/01 10:25:53;;;;;;;11.88;1.60;;;;;;;29.86;35.08;100784.54;1755744;81;20928;-44
2022/07/01 10:28:43;;;;;;;3.30;1.37;;;;;;;29.92;34.73;100785.28;1718949;83;21019;-43
2022/07/01 10:31:15;;;;;;;8.33;1.47;;;;;;;30.29;33.77;100784.43;1726636;82;21240;-44
2022/07/01 10:33:56;;;;;;;6.53;1.20;;;;;;;30.38;33.35;100778.17;1727019;83;21502;-44
2022/07/01 10:36:27;;;;;;;3.50;1.35;;;;;;;30.37;33.71;100770.33;1726360;82;21019;-42
2022/07/01 10:39:10;;;;;;;7.03;1.12;;;;;;;30.56;35.00;100776.02;1731539;81;21593;-43
2022/07/01 10:41:59;;;;;;;7.12;1.35;;;;;;;30.60;33.80;100767.23;1742298;81;21015;-44
2022/07/01 10:44:27;;;;;;;3.08;1.50;;;;;;;30.65;34.54;100774.31;1724128;82;21270;-43
2022/07/01 10:47:06;;;;;;;4.40;1.20;;;;;;;30.87;32.88;100771.66;1726284;82;20975;-43
2022/07/01 10:49:47;;;;;;;1.60;1.25;;;;;;;30.80;32.08;100769.27;1725566;83;21569;-44
2022/07/01 10:52:18;;;;;;;2.20;1.00;;;;;;;30.66;33.76;100757.30;1720597;82;20992;-44
2022/07/01 10:54:47;;;;;;;2.87;1.15;;;;;;;30.82;34.35;100760.59;1724378;83;20976;-43
2022/07/01 10:57:29;;;;;;;3.25;1.10;;;;;;;30.72;35.22;100758.52;1726421;83;21235;-43
2022/07/01 11:00:03;;;;;;;2.83;1.02;;;;;;;30.86;33.70;100752.61;1715051;82;20952;-44
2022/07/01 11:02:33;;;;;;;6.42;1.25;;;;;;;30.87;34.34;100754.28;1727451;83;20939;-43
2022/07/01 11:05:10;;;;;;;2.55;1.12;;;;;;;30.76;34.55;100751.36;1727282;83;20935;-43
2022/07/01 11:07:42;;;;;;;4.55;1.17;;;;;;;30.65;32.82;100747.09;1709530;82;21002;-43
2022/07/01 11:10:10;;;;;;;1.62;1.17;;;;;;;30.63;34.21;100741.06;1728520;82;21098;-43
2022/07/01 11:12:37;;;;;;;8.08;1.37;;;;;;;30.85;34.61;100744.77;1731175;82;20997;-43
2022/07/01 11:15:06;;;;;;;5.45;1.25;;;;;;;30.68;34.02;100742.77;1726624;82;20984;-43
2022/07/01 11:17:35;;;;;;;4.20;2.05;;;;;;;30.52;33.26;100738.61;1728480;81;21526;-43
2022/07/01 11:20:03;;;;;;;1.98;1.45;;;;;;;30.53;34.51;100739.77;1714051;82;20945;-43
2022/07/01 11:22:33;;;;;;;4.15;0.90;;;;;;;30.74;35.47;100736.50;1681747;83;22109;-44
2022/07/01 11:25:11;;;;;;;2.90;1.55;;;;;;;31.06;33.75;100724.38;1717591;82;21003;-45
2022/07/01 11:27:49;;;;;;;2.27;1.30;;;;;;;31.40;32.04;100732.95;1743605;81;20893;-44
2022/07/01 11:30:16;;;;;;;2.35;1.60;;;;;;;31.43;32.75;100729.14;1735422;82;20993;-42
2022/07/01 11:32:47;;;;;;;3.65;1.37;;;;;;;31.59;31.33;100717.68;1706150;82;21067;-43
2022/07/01 11:41:03;;;;;;;2.10;1.32;;;;;;;30.76;33.88;100719.30;1712077;83;20945;-44
2022/07/01 11:43:33;;;;;;;7.00;1.20;;;;;;;30.87;34.42;100715.55;1709859;82;20968;-44
2022/07/01 11:46:02;;;;;;;1.65;1.00;;;;;;;31.21;33.30;100722.84;1714654;82;20940;-43